Decoded Metar for KCNB (CANBY/MYERS FLD in MN, USA) (IATA:CNB) | Meteo·Mobile Aviation Weather
aviador You're here:

KCNB Decoded Metar

CANBY/MYERS FLD in MN, USA
Report Time2019-07-22 15:41:00
UTC Time2019-07-22 16:00:23
Flight Rules vfr VFR
Wind350° at 07 kt
W.Decomp.*RWY 30: 4.8 kt HW 5.1 kt RCW
Visibility9999 m
Phenomena:N/A
Clouds:N/A
Expected CloudBase > 4,000 ft AGL from Temp-Dew spread
CeilingNone
Temp22°C (ISA +9)
Dew Point12°C (53% RH)
AAT20.1°C
QNH1027 hPa
Density Alt2,008 ft
Elevation1,194 ft
Report Wrong Elevation
Raw Report
KCNB 221541Z AUTO 35007KT 10SM CLR 22/12 A3032 RMK AO2
T02180122=

Extra information for KCNB:More info

Metar Taf Metar & Taf Last 4 Metars F.Rules Stats Wind Profile Meteogram Temp Stats Airport Information Weather charts Add Link Nearby VenuesMetar ALERT Operation Metar Decoded Social comments

AIRNAV info for KCNB